sensor_id;sensor_type;location;lat;lon;timestamp;pressure;altitude;pressure_sealevel;temperature;humidity
19005;BME280;9635;52.078;8.648;2022-10-22T00:03:50;99884.13;;;12.44;87.25
19005;BME280;9635;52.078;8.648;2022-10-22T00:08:53;99891.22;;;12.45;86.88
19005;BME280;9635;52.078;8.648;2022-10-22T00:13:56;99891.06;;;12.47;87.36
19005;BME280;9635;52.078;8.648;2022-10-22T00:19:00;99898.13;;;12.48;87.16
19005;BME280;9635;52.078;8.648;2022-10-22T00:24:04;99900.47;;;12.43;86.88
19005;BME280;9635;52.078;8.648;2022-10-22T00:29:07;99892.38;;;12.43;87.16
19005;BME280;9635;52.078;8.648;2022-10-22T00:34:11;99905.25;;;12.39;87.04
19005;BME280;9635;52.078;8.648;2022-10-22T00:39:14;99927.13;;;12.36;87.08
19005;BME280;9635;52.078;8.648;2022-10-22T00:50:00;99925.25;;;12.46;86.91
19005;BME280;9635;52.078;8.648;2022-10-22T00:55:05;99921.09;;;12.52;87.15
19005;BME280;9635;52.078;8.648;2022-10-22T01:00:09;99935.53;;;12.60;87.00
19005;BME280;9635;52.078;8.648;2022-10-22T01:05:14;99933.09;;;12.67;86.49
19005;BME280;9635;52.078;8.648;2022-10-22T01:10:27;99933.84;;;12.59;86.39
19005;BME280;9635;52.078;8.648;2022-10-22T01:15:37;99922.34;;;12.57;86.26
19005;BME280;9635;52.078;8.648;2022-10-22T01:21:02;99923.81;;;12.52;86.34
19005;BME280;9635;52.078;8.648;2022-10-22T01:26:18;99920.69;;;12.47;86.40
19005;BME280;9635;52.078;8.648;2022-10-22T01:31:30;99923.56;;;12.45;85.99
19005;BME280;9635;52.078;8.648;2022-10-22T01:36:34;99925.53;;;12.43;86.13
19005;BME280;9635;52.078;8.648;2022-10-22T01:41:39;99926.38;;;12.44;86.06
19005;BME280;9635;52.078;8.648;2022-10-22T01:46:48;99925.94;;;12.48;86.29
19005;BME280;9635;52.078;8.648;2022-10-22T01:51:58;99911.34;;;12.51;86.02
19005;BME280;9635;52.078;8.648;2022-10-22T01:57:09;99914.72;;;12.53;86.01
19005;BME280;9635;52.078;8.648;2022-10-22T02:02:24;99911.47;;;12.49;85.88
19005;BME280;9635;52.078;8.648;2022-10-22T02:07:33;99922.13;;;12.41;85.61
19005;BME280;9635;52.078;8.648;2022-10-22T02:12:39;99917.19;;;12.36;85.71
19005;BME280;9635;52.078;8.648;2022-10-22T02:17:45;99913.09;;;12.32;85.51
19005;BME280;9635;52.078;8.648;2022-10-22T02:22:49;99893.94;;;12.26;85.58
19005;BME280;9635;52.078;8.648;2022-10-22T02:27:57;99888.84;;;12.23;85.64
19005;BME280;9635;52.078;8.648;2022-10-22T02:33:08;99898.38;;;12.17;85.78
19005;BME280;9635;52.078;8.648;2022-10-22T02:38:13;99896.69;;;12.16;85.79
19005;BME280;9635;52.078;8.648;2022-10-22T02:43:16;99906.31;;;12.09;86.03
19005;BME280;9635;52.078;8.648;2022-10-22T02:48:21;99901.53;;;12.03;85.91
19005;BME280;9635;52.078;8.648;2022-10-22T02:53:24;99884.97;;;11.98;86.04
19005;BME280;9635;52.078;8.648;2022-10-22T02:58:26;99903.81;;;11.98;86.28
19005;BME280;9635;52.078;8.648;2022-10-22T03:03:31;99918.81;;;12.00;86.34
19005;BME280;9635;52.078;8.648;2022-10-22T03:08:33;99923.66;;;11.97;86.21
19005;BME280;9635;52.078;8.648;2022-10-22T03:13:36;99918.09;;;11.98;86.51
19005;BME280;9635;52.078;8.648;2022-10-22T03:18:40;99927.31;;;11.95;86.25
19005;BME280;9635;52.078;8.648;2022-10-22T03:23:43;99931.19;;;11.93;86.33
19005;BME280;9635;52.078;8.648;2022-10-22T03:28:46;99939.94;;;11.95;86.31
19005;BME280;9635;52.078;8.648;2022-10-22T03:33:50;99942.63;;;11.95;86.19
19005;BME280;9635;52.078;8.648;2022-10-22T03:38:53;99950.28;;;11.90;86.32
19005;BME280;9635;52.078;8.648;2022-10-22T03:43:56;99946.91;;;11.88;86.50
19005;BME280;9635;52.078;8.648;2022-10-22T03:49:00;99947.16;;;11.94;86.24
19005;BME280;9635;52.078;8.648;2022-10-22T03:54:03;99962.47;;;11.94;86.30
19005;BME280;9635;52.078;8.648;2022-10-22T03:59:06;99959.47;;;11.97;86.20
19005;BME280;9635;52.078;8.648;2022-10-22T04:04:11;99960.78;;;11.93;86.11
19005;BME280;9635;52.078;8.648;2022-10-22T04:09:13;99958.94;;;11.93;85.99
19005;BME280;9635;52.078;8.648;2022-10-22T04:14:16;99975.22;;;11.92;86.09
19005;BME280;9635;52.078;8.648;2022-10-22T04:19:20;99976.91;;;11.83;85.83
19005;BME280;9635;52.078;8.648;2022-10-22T04:24:23;99980.75;;;11.81;85.81
19005;BME280;9635;52.078;8.648;2022-10-22T04:29:26;99982.28;;;11.73;85.78
19005;BME280;9635;52.078;8.648;2022-10-22T04:34:30;99974.06;;;11.65;85.50
19005;BME280;9635;52.078;8.648;2022-10-22T04:39:33;99983.28;;;11.53;85.89
19005;BME280;9635;52.078;8.648;2022-10-22T04:44:35;99982.84;;;11.48;86.13
19005;BME280;9635;52.078;8.648;2022-10-22T04:49:40;99967.41;;;11.40;85.91
19005;BME280;9635;52.078;8.648;2022-10-22T04:54:43;99969.09;;;11.32;86.18
19005;BME280;9635;52.078;8.648;2022-10-22T04:59:45;99977.31;;;11.30;86.27
19005;BME280;9635;52.078;8.648;2022-10-22T05:04:50;99977.56;;;11.27;86.49
19005;BME280;9635;52.078;8.648;2022-10-22T05:09:53;99970.50;;;11.16;87.30
19005;BME280;9635;52.078;8.648;2022-10-22T05:14:55;99981.16;;;11.27;87.02
19005;BME280;9635;52.078;8.648;2022-10-22T05:19:59;99975.31;;;11.32;86.93
19005;BME280;9635;52.078;8.648;2022-10-22T05:25:02;99974.34;;;11.33;86.43
19005;BME280;9635;52.078;8.648;2022-10-22T05:30:06;99989.03;;;11.19;86.25
19005;BME280;9635;52.078;8.648;2022-10-22T05:35:10;99989.81;;;11.10;86.55
19005;BME280;9635;52.078;8.648;2022-10-22T05:40:13;99993.34;;;11.11;86.80
19005;BME280;9635;52.078;8.648;2022-10-22T05:45:30;99994.34;;;11.00;87.18
19005;BME280;9635;52.078;8.648;2022-10-22T05:50:35;100004.53;;;11.06;87.09
19005;BME280;9635;52.078;8.648;2022-10-22T05:55:38;100008.16;;;11.16;87.25
19005;BME280;9635;52.078;8.648;2022-10-22T06:00:41;100020.31;;;11.20;86.83
19005;BME280;9635;52.078;8.648;2022-10-22T06:05:45;100029.50;;;11.18;86.70
19005;BME280;9635;52.078;8.648;2022-10-22T06:10:48;100028.78;;;11.16;86.69
19005;BME280;9635;52.078;8.648;2022-10-22T06:15:51;100036.84;;;11.16;86.74
19005;BME280;9635;52.078;8.648;2022-10-22T06:20:55;100049.31;;;11.17;86.58
19005;BME280;9635;52.078;8.648;2022-10-22T06:25:58;100047.47;;;11.27;86.71
19005;BME280;9635;52.078;8.648;2022-10-22T06:31:03;100061.53;;;11.31;86.30
19005;BME280;9635;52.078;8.648;2022-10-22T06:36:10;100057.72;;;11.33;86.29
19005;BME280;9635;52.078;8.648;2022-10-22T06:41:15;100066.34;;;11.37;86.21
19005;BME280;9635;52.078;8.648;2022-10-22T06:46:19;100088.88;;;11.45;85.89
19005;BME280;9635;52.078;8.648;2022-10-22T06:51:25;100085.06;;;11.48;85.83
19005;BME280;9635;52.078;8.648;2022-10-22T06:56:28;100099.16;;;11.81;85.59
19005;BME280;9635;52.078;8.648;2022-10-22T07:01:32;100099.72;;;12.04;84.06
19005;BME280;9635;52.078;8.648;2022-10-22T07:06:37;100108.13;;;12.39;82.93
19005;BME280;9635;52.078;8.648;2022-10-22T07:11:41;100116.75;;;12.63;81.26
19005;BME280;9635;52.078;8.648;2022-10-22T07:16:44;100106.72;;;13.02;80.20
19005;BME280;9635;52.078;8.648;2022-10-22T07:21:48;100104.06;;;13.67;78.64
19005;BME280;9635;52.078;8.648;2022-10-22T07:26:51;100114.50;;;13.98;75.35
19005;BME280;9635;52.078;8.648;2022-10-22T07:31:54;100119.59;;;14.36;74.45
19005;BME280;9635;52.078;8.648;2022-10-22T07:36:58;100127.03;;;14.52;72.90
19005;BME280;9635;52.078;8.648;2022-10-22T07:42:01;100131.34;;;14.81;72.69
19005;BME280;9635;52.078;8.648;2022-10-22T07:47:04;100126.00;;;14.97;71.72
19005;BME280;9635;52.078;8.648;2022-10-22T07:52:08;100134.03;;;15.07;71.00
19005;BME280;9635;52.078;8.648;2022-10-22T07:57:11;100136.41;;;14.84;72.23
19005;BME280;9635;52.078;8.648;2022-10-22T08:02:13;100129.88;;;15.21;71.71
19005;BME280;9635;52.078;8.648;2022-10-22T08:07:18;100131.72;;;15.46;71.28
19005;BME280;9635;52.078;8.648;2022-10-22T08:12:21;100133.75;;;15.95;70.45
19005;BME280;9635;52.078;8.648;2022-10-22T08:17:24;100143.19;;;16.66;69.09
19005;BME280;9635;52.078;8.648;2022-10-22T08:22:28;100149.63;;;16.90;67.52
19005;BME280;9635;52.078;8.648;2022-10-22T08:27:31;100136.75;;;16.59;67.63
19005;BME280;9635;52.078;8.648;2022-10-22T08:32:33;100153.19;;;16.90;67.83
19005;BME280;9635;52.078;8.648;2022-10-22T08:37:38;100155.31;;;17.36;67.20
19005;BME280;9635;52.078;8.648;2022-10-22T08:42:55;100157.03;;;17.76;66.07
19005;BME280;9635;52.078;8.648;2022-10-22T08:48:15;100158.72;;;17.85;66.33
19005;BME280;9635;52.078;8.648;2022-10-22T08:53:29;100159.06;;;17.74;66.86
19005;BME280;9635;52.078;8.648;2022-10-22T08:58:39;100169.72;;;17.44;67.95
19005;BME280;9635;52.078;8.648;2022-10-22T09:03:49;100168.03;;;17.43;67.92
19005;BME280;9635;52.078;8.648;2022-10-22T09:08:56;100181.47;;;17.12;68.30
19005;BME280;9635;52.078;8.648;2022-10-22T09:14:01;100163.19;;;17.70;67.55
19005;BME280;9635;52.078;8.648;2022-10-22T09:19:14;100169.06;;;17.34;68.62
19005;BME280;9635;52.078;8.648;2022-10-22T09:24:29;100178.94;;;16.70;68.95
19005;BME280;9635;52.078;8.648;2022-10-22T09:29:34;100168.91;;;16.95;69.59
19005;BME280;9635;52.078;8.648;2022-10-22T09:34:54;100170.66;;;16.63;69.78
19005;BME280;9635;52.078;8.648;2022-10-22T09:40:13;100176.63;;;16.08;71.99
19005;BME280;9635;52.078;8.648;2022-10-22T09:45:19;100183.03;;;16.74;70.39
19005;BME280;9635;52.078;8.648;2022-10-22T09:50:26;100190.47;;;16.72;70.27
19005;BME280;9635;52.078;8.648;2022-10-22T09:55:31;100196.31;;;17.57;67.67
19005;BME280;9635;52.078;8.648;2022-10-22T10:00:37;100211.16;;;16.97;68.71
19005;BME280;9635;52.078;8.648;2022-10-22T10:05:40;100200.44;;;17.92;66.49
19005;BME280;9635;52.078;8.648;2022-10-22T10:10:47;100210.44;;;18.00;65.31
19005;BME280;9635;52.078;8.648;2022-10-22T10:15:55;100216.69;;;17.61;66.09
19005;BME280;9635;52.078;8.648;2022-10-22T10:21:06;100211.63;;;18.06;65.39
19005;BME280;9635;52.078;8.648;2022-10-22T10:26:17;100216.31;;;17.73;65.22
19005;BME280;9635;52.078;8.648;2022-10-22T10:31:31;100224.56;;;17.07;67.33
19005;BME280;9635;52.078;8.648;2022-10-22T10:36:39;100238.47;;;16.88;66.79
19005;BME280;9635;52.078;8.648;2022-10-22T10:41:53;100227.59;;;17.12;65.92
19005;BME280;9635;52.078;8.648;2022-10-22T10:47:08;100246.06;;;17.41;64.51
19005;BME280;9635;52.078;8.648;2022-10-22T10:52:19;100231.63;;;17.49;64.42
19005;BME280;9635;52.078;8.648;2022-10-22T10:57:35;100233.72;;;17.06;63.42
19005;BME280;9635;52.078;8.648;2022-10-22T11:03:07;100237.88;;;16.35;65.18
19005;BME280;9635;52.078;8.648;2022-10-22T11:08:19;100239.44;;;16.54;64.67
19005;BME280;9635;52.078;8.648;2022-10-22T11:13:29;100235.34;;;16.42;65.50
19005;BME280;9635;52.078;8.648;2022-10-22T11:18:37;100246.09;;;16.92;64.02
19005;BME280;9635;52.078;8.648;2022-10-22T11:23:46;100243.13;;;16.45;65.83
19005;BME280;9635;52.078;8.648;2022-10-22T11:28:52;100248.16;;;15.81;67.92
19005;BME280;9635;52.078;8.648;2022-10-22T11:34:04;100242.53;;;15.82;67.81
19005;BME280;9635;52.078;8.648;2022-10-22T11:39:37;100247.81;;;15.84;68.26
19005;BME280;9635;52.078;8.648;2022-10-22T11:44:57;100247.38;;;16.39;67.47
19005;BME280;9635;52.078;8.648;2022-10-22T11:50:17;100249.66;;;18.06;62.91
19005;BME280;9635;52.078;8.648;2022-10-22T11:55:44;100255.63;;;17.93;61.84
19005;BME280;9635;52.078;8.648;2022-10-22T12:00:50;100273.50;;;17.71;62.14
19005;BME280;9635;52.078;8.648;2022-10-22T12:06:15;100242.94;;;18.56;60.45
19005;BME280;9635;52.078;8.648;2022-10-22T12:11:23;100252.16;;;18.47;59.61
19005;BME280;9635;52.078;8.648;2022-10-22T12:16:34;100251.38;;;17.99;59.97
19005;BME280;9635;52.078;8.648;2022-10-22T12:21:58;100267.66;;;17.18;62.06
19005;BME280;9635;52.078;8.648;2022-10-22T12:27:02;100234.91;;;16.20;64.53
19005;BME280;9635;52.078;8.648;2022-10-22T12:32:09;100255.97;;;16.26;64.59
19005;BME280;9635;52.078;8.648;2022-10-22T12:37:15;100256.44;;;16.22;65.62
19005;BME280;9635;52.078;8.648;2022-10-22T12:42:18;100261.00;;;16.13;65.31
19005;BME280;9635;52.078;8.648;2022-10-22T12:47:24;100267.19;;;15.71;67.57
19005;BME280;9635;52.078;8.648;2022-10-22T12:52:27;100261.91;;;15.96;66.52
19005;BME280;9635;52.078;8.648;2022-10-22T12:57:29;100264.56;;;16.22;66.24
19005;BME280;9635;52.078;8.648;2022-10-22T13:02:34;100250.81;;;18.43;58.24
19005;BME280;9635;52.078;8.648;2022-10-22T13:07:37;100259.75;;;19.81;54.94
19005;BME280;9635;52.078;8.648;2022-10-22T13:12:43;100260.50;;;19.75;54.69
19005;BME280;9635;52.078;8.648;2022-10-22T13:18:00;100267.66;;;18.46;57.67
19005;BME280;9635;52.078;8.648;2022-10-22T13:23:04;100263.72;;;17.54;60.14
19005;BME280;9635;52.078;8.648;2022-10-22T13:28:17;100274.44;;;17.31;60.89
19005;BME280;9635;52.078;8.648;2022-10-22T13:33:23;100265.75;;;17.11;61.17
19005;BME280;9635;52.078;8.648;2022-10-22T13:38:28;100266.56;;;16.54;62.79
19005;BME280;9635;52.078;8.648;2022-10-22T13:43:31;100279.63;;;16.16;64.84
19005;BME280;9635;52.078;8.648;2022-10-22T13:48:35;100265.00;;;16.01;65.17
19005;BME280;9635;52.078;8.648;2022-10-22T13:53:38;100264.38;;;16.23;64.53
19005;BME280;9635;52.078;8.648;2022-10-22T13:58:41;100267.53;;;16.36;63.93
19005;BME280;9635;52.078;8.648;2022-10-22T14:03:47;100277.28;;;15.87;65.04
19005;BME280;9635;52.078;8.648;2022-10-22T14:08:55;100287.47;;;15.93;65.16
19005;BME280;9635;52.078;8.648;2022-10-22T14:13:59;100309.63;;;15.36;66.95
19005;BME280;9635;52.078;8.648;2022-10-22T14:19:06;100307.03;;;15.53;67.94
19005;BME280;9635;52.078;8.648;2022-10-22T14:24:11;100317.44;;;15.03;70.16
19005;BME280;9635;52.078;8.648;2022-10-22T14:29:14;100313.66;;;15.14;71.47
19005;BME280;9635;52.078;8.648;2022-10-22T14:34:18;100303.97;;;15.12;71.53
19005;BME280;9635;52.078;8.648;2022-10-22T14:39:21;100305.75;;;15.39;70.61
19005;BME280;9635;52.078;8.648;2022-10-22T14:44:24;100313.69;;;15.58;70.24
19005;BME280;9635;52.078;8.648;2022-10-22T14:49:28;100317.63;;;15.46;70.97
19005;BME280;9635;52.078;8.648;2022-10-22T14:54:31;100325.19;;;15.60;70.20
19005;BME280;9635;52.078;8.648;2022-10-22T14:59:35;100324.84;;;15.37;71.38
19005;BME280;9635;52.078;8.648;2022-10-22T15:04:40;100327.13;;;15.32;71.85
19005;BME280;9635;52.078;8.648;2022-10-22T15:09:42;100329.16;;;15.48;70.81
19005;BME280;9635;52.078;8.648;2022-10-22T15:14:45;100341.63;;;15.41;71.38
19005;BME280;9635;52.078;8.648;2022-10-22T15:19:50;100343.78;;;15.37;71.34
19005;BME280;9635;52.078;8.648;2022-10-22T15:24:53;100338.06;;;15.22;71.55
19005;BME280;9635;52.078;8.648;2022-10-22T15:29:56;100345.56;;;15.29;71.40
19005;BME280;9635;52.078;8.648;2022-10-22T15:35:01;100349.94;;;15.30;70.62
19005;BME280;9635;52.078;8.648;2022-10-22T15:40:07;100355.53;;;15.28;70.92
19005;BME280;9635;52.078;8.648;2022-10-22T15:45:09;100350.75;;;15.40;69.74
19005;BME280;9635;52.078;8.648;2022-10-22T15:50:14;100363.25;;;15.41;69.48
19005;BME280;9635;52.078;8.648;2022-10-22T15:55:17;100358.88;;;15.40;69.81
19005;BME280;9635;52.078;8.648;2022-10-22T16:00:20;100355.78;;;15.35;69.51
19005;BME280;9635;52.078;8.648;2022-10-22T16:05:25;100355.16;;;15.23;69.80
19005;BME280;9635;52.078;8.648;2022-10-22T16:10:28;100356.84;;;15.24;69.16
19005;BME280;9635;52.078;8.648;2022-10-22T16:15:33;100352.81;;;15.10;68.26
19005;BME280;9635;52.078;8.648;2022-10-22T16:20:38;100361.53;;;14.86;68.66
19005;BME280;9635;52.078;8.648;2022-10-22T16:25:42;100362.69;;;14.83;68.34
19005;BME280;9635;52.078;8.648;2022-10-22T16:30:45;100365.50;;;14.64;69.00
19005;BME280;9635;52.078;8.648;2022-10-22T16:35:49;100370.34;;;14.70;68.55
19005;BME280;9635;52.078;8.648;2022-10-22T16:40:52;100375.03;;;14.68;68.80
19005;BME280;9635;52.078;8.648;2022-10-22T16:45:55;100373.72;;;14.72;68.80
19005;BME280;9635;52.078;8.648;2022-10-22T16:51:04;100381.44;;;14.67;68.91
19005;BME280;9635;52.078;8.648;2022-10-22T16:56:07;100387.75;;;14.58;69.32
19005;BME280;9635;52.078;8.648;2022-10-22T17:01:10;100406.31;;;14.43;69.64
19005;BME280;9635;52.078;8.648;2022-10-22T17:06:20;100407.47;;;14.41;69.92
19005;BME280;9635;52.078;8.648;2022-10-22T17:11:23;100408.78;;;14.27;70.02
19005;BME280;9635;52.078;8.648;2022-10-22T17:16:26;100414.47;;;14.24;69.99
19005;BME280;9635;52.078;8.648;2022-10-22T17:21:31;100416.03;;;14.26;70.05
19005;BME280;9635;52.078;8.648;2022-10-22T17:26:34;100429.25;;;14.20;70.29
19005;BME280;9635;52.078;8.648;2022-10-22T17:31:38;100431.28;;;14.08;70.60
19005;BME280;9635;52.078;8.648;2022-10-22T17:36:43;100437.97;;;14.04;70.54
19005;BME280;9635;52.078;8.648;2022-10-22T17:41:46;100438.25;;;14.01;70.54
19005;BME280;9635;52.078;8.648;2022-10-22T17:46:49;100431.75;;;13.93;70.81
19005;BME280;9635;52.078;8.648;2022-10-22T17:51:53;100443.53;;;13.92;70.40
19005;BME280;9635;52.078;8.648;2022-10-22T17:56:56;100442.28;;;13.87;70.61
19005;BME280;9635;52.078;8.648;2022-10-22T18:01:59;100451.38;;;13.76;70.98
19005;BME280;9635;52.078;8.648;2022-10-22T18:07:04;100446.97;;;13.65;71.32
19005;BME280;9635;52.078;8.648;2022-10-22T18:12:07;100459.22;;;13.69;71.24
19005;BME280;9635;52.078;8.648;2022-10-22T18:17:11;100470.59;;;13.63;71.07
19005;BME280;9635;52.078;8.648;2022-10-22T18:22:16;100462.19;;;13.57;71.33
19005;BME280;9635;52.078;8.648;2022-10-22T18:27:19;100468.16;;;13.51;71.29
19005;BME280;9635;52.078;8.648;2022-10-22T18:32:22;100458.50;;;13.48;71.33
19005;BME280;9635;52.078;8.648;2022-10-22T18:37:26;100468.66;;;13.35;71.52
19005;BME280;9635;52.078;8.648;2022-10-22T18:42:29;100470.41;;;13.36;71.44
19005;BME280;9635;52.078;8.648;2022-10-22T18:47:38;100469.25;;;13.28;71.73
19005;BME280;9635;52.078;8.648;2022-10-22T18:52:42;100480.31;;;13.25;71.95
19005;BME280;9635;52.078;8.648;2022-10-22T18:57:47;100483.41;;;13.21;71.97
19005;BME280;9635;52.078;8.648;2022-10-22T19:02:51;100487.41;;;13.17;72.17
19005;BME280;9635;52.078;8.648;2022-10-22T19:07:57;100476.56;;;13.07;72.66
19005;BME280;9635;52.078;8.648;2022-10-22T19:13:00;100471.88;;;12.99;72.79
19005;BME280;9635;52.078;8.648;2022-10-22T19:18:03;100469.16;;;12.99;72.86
19005;BME280;9635;52.078;8.648;2022-10-22T19:23:07;100461.06;;;12.90;72.68
19005;BME280;9635;52.078;8.648;2022-10-22T19:28:10;100475.06;;;12.74;73.37
19005;BME280;9635;52.078;8.648;2022-10-22T19:33:13;100484.66;;;12.67;73.85
19005;BME280;9635;52.078;8.648;2022-10-22T19:38:17;100494.88;;;12.63;74.40
19005;BME280;9635;52.078;8.648;2022-10-22T19:43:20;100489.38;;;12.74;74.00
19005;BME280;9635;52.078;8.648;2022-10-22T19:48:23;100485.56;;;12.77;73.86
19005;BME280;9635;52.078;8.648;2022-10-22T19:53:28;100488.94;;;12.69;73.89
19005;BME280;9635;52.078;8.648;2022-10-22T19:58:31;100476.72;;;12.65;73.80
19005;BME280;9635;52.078;8.648;2022-10-22T20:03:34;100477.41;;;12.57;73.91
19005;BME280;9635;52.078;8.648;2022-10-22T20:08:39;100481.19;;;12.45;74.20
19005;BME280;9635;52.078;8.648;2022-10-22T20:13:42;100487.25;;;12.37;74.52
19005;BME280;9635;52.078;8.648;2022-10-22T20:18:51;100485.22;;;12.30;74.72
19005;BME280;9635;52.078;8.648;2022-10-22T20:23:56;100488.13;;;12.27;75.09
19005;BME280;9635;52.078;8.648;2022-10-22T20:28:59;100483.28;;;12.21;75.19
19005;BME280;9635;52.078;8.648;2022-10-22T20:34:01;100492.34;;;12.20;75.28
19005;BME280;9635;52.078;8.648;2022-10-22T20:39:09;100491.75;;;12.16;75.39
19005;BME280;9635;52.078;8.648;2022-10-22T20:44:17;100488.72;;;12.09;75.94
19005;BME280;9635;52.078;8.648;2022-10-22T20:49:20;100490.72;;;12.07;75.73
19005;BME280;9635;52.078;8.648;2022-10-22T20:54:30;100496.47;;;12.03;75.97
19005;BME280;9635;52.078;8.648;2022-10-22T20:59:33;100490.78;;;11.96;76.21
19005;BME280;9635;52.078;8.648;2022-10-22T21:04:36;100493.25;;;11.88;76.23
19005;BME280;9635;52.078;8.648;2022-10-22T21:09:44;100491.94;;;11.82;76.49
19005;BME280;9635;52.078;8.648;2022-10-22T21:14:47;100489.16;;;11.72;76.58
19005;BME280;9635;52.078;8.648;2022-10-22T21:19:50;100490.44;;;11.68;76.92
19005;BME280;9635;52.078;8.648;2022-10-22T21:24:54;100484.84;;;11.60;76.91
19005;BME280;9635;52.078;8.648;2022-10-22T21:29:57;100477.25;;;11.54;77.10
19005;BME280;9635;52.078;8.648;2022-10-22T21:35:00;100489.63;;;11.45;77.51
19005;BME280;9635;52.078;8.648;2022-10-22T21:40:06;100489.78;;;11.44;77.77
19005;BME280;9635;52.078;8.648;2022-10-22T21:45:09;100492.69;;;11.41;77.86
19005;BME280;9635;52.078;8.648;2022-10-22T21:50:15;100502.13;;;11.35;77.89
19005;BME280;9635;52.078;8.648;2022-10-22T21:55:20;100495.56;;;11.28;78.29
19005;BME280;9635;52.078;8.648;2022-10-22T22:00:23;100480.28;;;11.28;78.28
19005;BME280;9635;52.078;8.648;2022-10-22T22:05:26;100488.59;;;11.25;78.34
19005;BME280;9635;52.078;8.648;2022-10-22T22:10:31;100502.78;;;11.27;78.36
19005;BME280;9635;52.078;8.648;2022-10-22T22:15:33;100501.19;;;11.25;78.32
19005;BME280;9635;52.078;8.648;2022-10-22T22:20:36;100508.41;;;11.24;78.50
19005;BME280;9635;52.078;8.648;2022-10-22T22:25:40;100505.00;;;11.22;78.49
19005;BME280;9635;52.078;8.648;2022-10-22T22:30:43;100508.78;;;11.20;78.73
19005;BME280;9635;52.078;8.648;2022-10-22T22:35:46;100496.19;;;11.20;78.69
19005;BME280;9635;52.078;8.648;2022-10-22T22:40:50;100484.06;;;11.26;78.51
19005;BME280;9635;52.078;8.648;2022-10-22T22:45:58;100496.53;;;11.27;78.49
19005;BME280;9635;52.078;8.648;2022-10-22T22:51:01;100491.28;;;11.25;78.40
19005;BME280;9635;52.078;8.648;2022-10-22T22:56:07;100486.75;;;11.26;78.28
19005;BME280;9635;52.078;8.648;2022-10-22T23:01:14;100485.91;;;11.25;78.21
19005;BME280;9635;52.078;8.648;2022-10-22T23:06:17;100487.03;;;11.23;78.46
19005;BME280;9635;52.078;8.648;2022-10-22T23:11:23;100497.78;;;11.23;78.41
19005;BME280;9635;52.078;8.648;2022-10-22T23:16:28;100485.78;;;11.27;78.26
19005;BME280;9635;52.078;8.648;2022-10-22T23:21:33;100477.72;;;11.27;78.18
19005;BME280;9635;52.078;8.648;2022-10-22T23:26:39;100472.09;;;11.30;78.02
19005;BME280;9635;52.078;8.648;2022-10-22T23:31:42;100472.47;;;11.25;78.12
19005;BME280;9635;52.078;8.648;2022-10-22T23:36:46;100473.56;;;11.23;78.08
19005;BME280;9635;52.078;8.648;2022-10-22T23:41:51;100473.31;;;11.26;78.27
19005;BME280;9635;52.078;8.648;2022-10-22T23:46:54;100472.72;;;11.22;78.14
19005;BME280;9635;52.078;8.648;2022-10-22T23:51:57;100470.28;;;11.19;78.27
19005;BME280;9635;52.078;8.648;2022-10-22T23:57:01;100460.66;;;11.17;78.29
